createdAt,value
2023-03-19T00:01:32.884Z,1.50
2023-03-19T00:04:06.954Z,1.70
2023-03-19T00:06:40.933Z,1.10
2023-03-19T00:09:08.554Z,1.37
2023-03-19T00:11:36.527Z,1.40
2023-03-19T00:14:10.969Z,1.53
2023-03-19T00:16:38.544Z,1.80
2023-03-19T00:19:12.924Z,1.50
2023-03-19T00:21:40.695Z,1.70
2023-03-19T00:24:17.130Z,1.37
2023-03-19T00:26:45.104Z,1.40
2023-03-19T00:29:20.966Z,1.27
2023-03-19T00:31:54.940Z,1.20
2023-03-19T00:34:35.950Z,1.30
2023-03-19T00:37:09.915Z,1.70
2023-03-19T00:39:43.921Z,1.37
2023-03-19T00:42:17.911Z,1.40
2023-03-19T00:44:47.520Z,1.40
2023-03-19T00:47:23.928Z,1.30
2023-03-19T00:49:57.915Z,1.20
2023-03-19T00:52:31.910Z,1.40
2023-03-19T00:54:59.378Z,1.33
2023-03-19T00:57:35.046Z,1.13
2023-03-19T01:00:08.943Z,1.33
2023-03-19T01:02:42.942Z,1.57
2023-03-19T01:05:16.915Z,1.60
2023-03-19T01:07:50.967Z,1.20
2023-03-19T01:10:22.838Z,1.30
2023-03-19T01:12:56.911Z,1.30
2023-03-19T01:15:30.949Z,1.07
2023-03-19T01:18:05.015Z,1.53
2023-03-19T01:20:33.034Z,1.00
2023-03-19T01:23:08.905Z,1.00
2023-03-19T01:25:36.442Z,1.40
2023-03-19T01:28:10.965Z,1.57
2023-03-19T01:30:47.987Z,1.13
2023-03-19T01:33:28.922Z,1.43
2023-03-19T01:36:07.683Z,1.40
2023-03-19T01:38:41.981Z,1.50
2023-03-19T01:41:09.718Z,1.27
2023-03-19T01:43:43.942Z,1.17
2023-03-19T01:46:38.075Z,1.50
2023-03-19T01:49:15.039Z,1.30
2023-03-19T01:51:45.904Z,1.00
2023-03-19T01:54:26.026Z,1.10
2023-03-19T01:57:09.037Z,1.23
2023-03-19T01:59:50.036Z,1.30
2023-03-19T02:02:39.075Z,1.20
2023-03-19T02:05:24.002Z,1.20
2023-03-19T02:07:59.018Z,1.13
2023-03-19T02:10:34.334Z,1.17
2023-03-19T02:13:08.141Z,1.17
2023-03-19T02:15:43.096Z,1.20
2023-03-19T02:18:10.928Z,1.40
2023-03-19T02:20:55.066Z,1.30
2023-03-19T02:23:29.087Z,1.30
2023-03-19T02:26:26.012Z,1.20
2023-03-19T02:28:53.831Z,1.03
2023-03-19T02:31:29.076Z,1.40
2023-03-19T02:34:28.092Z,1.30
2023-03-19T02:37:00.964Z,1.03
2023-03-19T02:39:45.069Z,1.00
2023-03-19T02:42:13.647Z,1.37
2023-03-19T02:44:49.038Z,1.10
2023-03-19T02:47:24.109Z,1.33
2023-03-19T02:49:58.095Z,1.30
2023-03-19T02:52:32.123Z,1.30
2023-03-19T02:55:01.582Z,1.50
2023-03-19T02:57:36.087Z,1.60
2023-03-19T03:00:05.600Z,1.23
2023-03-19T03:02:40.078Z,1.40
2023-03-19T03:05:21.028Z,1.57
2023-03-19T03:07:56.109Z,1.37
2023-03-19T03:10:30.085Z,1.20
2023-03-19T03:13:06.191Z,1.40
2023-03-19T03:15:33.844Z,1.33
2023-03-19T03:18:09.182Z,1.00
2023-03-19T03:20:43.135Z,1.50
2023-03-19T03:23:12.352Z,1.30
2023-03-19T03:25:48.646Z,1.13
2023-03-19T03:28:23.569Z,1.50
2023-03-19T03:30:57.583Z,1.30
2023-03-19T03:33:31.641Z,1.40
2023-03-19T03:36:06.597Z,1.50
2023-03-19T03:38:37.030Z,1.50
2023-03-19T03:41:11.652Z,1.20
2023-03-19T03:43:39.645Z,1.40
2023-03-19T03:46:15.745Z,1.20
2023-03-19T03:48:43.197Z,1.40
2023-03-19T03:51:17.644Z,1.70
2023-03-19T03:53:51.667Z,1.30
2023-03-19T03:56:19.089Z,1.30
2023-03-19T03:58:52.643Z,1.27
2023-03-19T04:01:26.602Z,1.40
2023-03-19T04:04:07.580Z,1.53
2023-03-19T04:06:41.583Z,1.90
2023-03-19T04:09:16.660Z,2.00
2023-03-19T04:11:51.626Z,1.83
2023-03-19T04:14:19.199Z,1.63
2023-03-19T04:16:53.702Z,1.43
2023-03-19T04:19:27.632Z,1.37
2023-03-19T04:21:55.100Z,1.40
2023-03-19T04:24:22.632Z,1.60
2023-03-19T04:26:56.588Z,1.40
2023-03-19T04:29:23.971Z,1.70
2023-03-19T04:31:58.690Z,1.67
2023-03-19T04:34:26.244Z,1.53
2023-03-19T04:37:00.669Z,1.67
2023-03-19T04:39:28.734Z,1.60
2023-03-19T04:42:03.657Z,1.80
2023-03-19T04:44:32.234Z,1.60
2023-03-19T04:47:06.606Z,1.33
2023-03-19T04:49:40.831Z,1.37
2023-03-19T04:52:09.529Z,1.40
2023-03-19T04:54:37.009Z,1.30
2023-03-19T04:57:10.935Z,1.60
2023-03-19T04:59:44.577Z,1.43
2023-03-19T05:02:18.606Z,1.40
2023-03-19T05:04:52.700Z,1.60
2023-03-19T05:07:26.615Z,1.20
2023-03-19T05:09:54.401Z,1.43
2023-03-19T05:12:28.647Z,1.60
2023-03-19T05:14:56.060Z,1.50
2023-03-19T05:17:30.602Z,1.47
2023-03-19T05:19:58.505Z,1.57
2023-03-19T05:22:32.653Z,1.80
2023-03-19T05:25:07.643Z,1.40
2023-03-19T05:27:43.675Z,1.00
2023-03-19T05:30:19.627Z,1.97
2023-03-19T05:32:53.623Z,1.20
2023-03-19T05:35:27.636Z,1.50
2023-03-19T05:38:02.629Z,1.23
2023-03-19T05:40:30.050Z,1.27
2023-03-19T05:43:03.589Z,1.37
2023-03-19T05:45:31.184Z,1.50
2023-03-19T05:48:05.634Z,1.50
2023-03-19T05:50:34.232Z,1.70
2023-03-19T05:53:08.637Z,1.50
2023-03-19T05:55:42.651Z,1.50
2023-03-19T05:58:17.082Z,1.40
2023-03-19T06:00:51.620Z,1.30
2023-03-19T06:03:27.258Z,1.70
2023-03-19T06:06:01.666Z,1.77
2023-03-19T06:08:36.706Z,1.53
2023-03-19T06:11:10.641Z,1.80
2023-03-19T06:13:41.038Z,2.10
2023-03-19T06:16:15.724Z,1.37
2023-03-19T06:18:43.319Z,1.67
2023-03-19T06:21:17.721Z,1.37
2023-03-19T06:23:46.343Z,1.73
2023-03-19T06:26:22.692Z,1.60
2023-03-19T06:28:56.786Z,1.30
2023-03-19T06:31:30.796Z,1.70
2023-03-19T06:34:05.780Z,1.40
2023-03-19T06:36:39.757Z,1.70
2023-03-19T06:39:07.777Z,2.00
2023-03-19T06:41:41.850Z,1.83
2023-03-19T06:44:09.628Z,2.20
2023-03-19T06:46:43.679Z,1.90
2023-03-19T06:49:11.289Z,1.93
2023-03-19T06:51:45.738Z,1.63
2023-03-19T06:54:13.215Z,1.37
2023-03-19T06:56:47.724Z,1.60
2023-03-19T06:59:21.678Z,1.57
2023-03-19T07:01:49.202Z,1.60
2023-03-19T07:04:30.786Z,1.50
2023-03-19T07:07:04.740Z,1.50
2023-03-19T07:09:39.753Z,1.50
2023-03-19T07:12:20.965Z,1.60
2023-03-19T07:14:55.907Z,1.87
2023-03-19T07:17:27.139Z,1.40
2023-03-19T07:20:01.100Z,1.50
2023-03-19T07:22:35.131Z,1.55
2023-03-19T07:25:02.803Z,1.80
2023-03-19T07:27:38.118Z,1.70
2023-03-19T07:30:08.023Z,1.63
2023-03-19T07:32:58.169Z,1.60
2023-03-19T07:35:39.087Z,1.88
2023-03-19T07:38:13.192Z,1.52
2023-03-19T07:40:45.535Z,1.90
2023-03-19T07:43:25.161Z,1.50
2023-03-19T07:46:12.990Z,1.77
2023-03-19T07:48:47.196Z,1.70
2023-03-19T07:51:16.400Z,1.63
2023-03-19T07:53:51.275Z,1.83
2023-03-19T07:56:19.333Z,1.80
2023-03-19T07:58:53.113Z,1.70
2023-03-19T08:01:28.153Z,1.80
2023-03-19T08:04:03.277Z,1.90
2023-03-19T08:06:37.147Z,2.15
2023-03-19T08:09:05.119Z,1.73
2023-03-19T08:11:39.048Z,2.25
2023-03-19T08:14:08.119Z,1.90
2023-03-19T08:16:43.179Z,2.00
2023-03-19T08:19:17.291Z,1.88
2023-03-19T08:21:52.124Z,2.00
2023-03-19T08:24:20.055Z,1.85
2023-03-19T08:26:56.717Z,1.95
2023-03-19T08:29:32.659Z,1.90
2023-03-19T08:32:09.886Z,1.80
2023-03-19T08:34:38.512Z,1.92
2023-03-19T08:37:13.923Z,1.73
2023-03-19T08:39:45.144Z,1.92
2023-03-19T08:42:19.889Z,1.70
2023-03-19T08:44:53.963Z,1.90
2023-03-19T08:47:30.945Z,1.88
2023-03-19T08:50:04.840Z,1.50
2023-03-19T08:52:39.201Z,1.67
2023-03-19T08:55:07.572Z,2.05
2023-03-19T08:57:41.929Z,1.67
2023-03-19T09:00:16.961Z,1.70
2023-03-19T09:02:58.959Z,2.10
2023-03-19T09:05:34.456Z,2.10
2023-03-19T09:08:08.422Z,2.13
2023-03-19T09:10:42.558Z,2.00
2023-03-19T09:13:10.254Z,1.90
2023-03-19T09:15:44.369Z,1.77
2023-03-19T09:18:12.026Z,2.10
2023-03-19T09:20:48.468Z,2.00
2023-03-19T09:23:25.957Z,1.80
2023-03-19T09:26:00.552Z,1.90
2023-03-19T09:28:34.545Z,2.03
2023-03-19T09:31:13.548Z,2.17
2023-03-19T09:33:47.515Z,2.35
2023-03-19T09:36:16.241Z,2.10
2023-03-19T09:38:43.758Z,2.03
2023-03-19T09:41:30.752Z,2.05
2023-03-19T09:44:12.048Z,2.30
2023-03-19T09:46:58.671Z,2.08
2023-03-19T09:49:37.679Z,2.20
2023-03-19T09:52:14.798Z,1.90
2023-03-19T09:54:50.072Z,1.92
2023-03-19T09:57:27.203Z,1.70
2023-03-19T09:59:54.959Z,1.52
2023-03-19T10:02:49.783Z,1.80
2023-03-19T10:05:49.247Z,1.60
2023-03-19T10:08:49.794Z,2.00
2023-03-19T10:11:38.638Z,2.13
2023-03-19T10:14:39.934Z,1.90
2023-03-19T10:17:16.167Z,2.10
2023-03-19T10:20:16.894Z,1.40
2023-03-19T10:22:57.837Z,2.10
2023-03-19T10:25:36.547Z,1.67
2023-03-19T10:28:22.869Z,1.88
2023-03-19T10:31:10.948Z,2.05
2023-03-19T10:34:11.874Z,1.98
2023-03-19T10:36:42.401Z,1.70
2023-03-19T10:39:16.886Z,1.77
2023-03-19T10:42:04.280Z,1.73
2023-03-19T10:44:50.024Z,1.70
2023-03-19T10:47:20.212Z,1.48
2023-03-19T10:49:57.995Z,2.20
2023-03-19T10:52:40.138Z,1.80
2023-03-19T10:55:22.024Z,1.52
2023-03-19T10:57:54.100Z,1.42
2023-03-19T11:00:32.224Z,1.55
2023-03-19T11:03:09.181Z,1.73
2023-03-19T11:05:51.022Z,1.60
2023-03-19T11:08:35.585Z,1.48
2023-03-19T11:11:12.332Z,1.95
2023-03-19T11:13:40.536Z,1.48
2023-03-19T11:16:08.101Z,1.42
2023-03-19T11:18:47.952Z,1.50
2023-03-19T11:21:39.950Z,1.50
2023-03-19T11:24:18.883Z,1.85
2023-03-19T11:26:57.010Z,1.77
2023-03-19T11:29:32.977Z,1.60
2023-03-19T11:32:21.738Z,1.50
2023-03-19T11:35:21.929Z,1.50
2023-03-19T11:37:58.126Z,1.30
2023-03-19T11:40:44.447Z,1.40
2023-03-19T11:43:44.027Z,1.00
2023-03-19T11:46:41.250Z,1.38
2023-03-19T11:49:30.641Z,1.38
2023-03-19T11:52:19.273Z,1.27
2023-03-19T11:55:05.088Z,1.35
2023-03-19T11:58:01.351Z,1.40
2023-03-19T12:00:51.497Z,1.50
2023-03-19T12:03:42.537Z,1.50
2023-03-19T12:07:05.274Z,1.30
2023-03-19T12:09:58.292Z,1.30
2023-03-19T12:12:34.729Z,1.55
2023-03-19T12:15:29.497Z,1.50
2023-03-19T12:18:22.293Z,1.90
2023-03-19T12:20:54.884Z,1.65
2023-03-19T12:24:00.591Z,1.50
2023-03-19T12:27:07.397Z,1.80
2023-03-19T12:29:57.340Z,1.65
2023-03-19T12:33:10.504Z,1.42
2023-03-19T12:35:52.396Z,1.65
2023-03-19T12:38:43.617Z,1.92
2023-03-19T12:41:23.355Z,1.55
2023-03-19T12:44:02.458Z,1.55
2023-03-19T12:46:52.522Z,1.52
2023-03-19T12:49:30.601Z,1.65
2023-03-19T12:52:31.518Z,1.50
2023-03-19T12:55:14.665Z,1.63
2023-03-19T12:58:09.817Z,1.70
2023-03-19T13:00:58.361Z,1.48
2023-03-19T13:03:39.430Z,1.50
2023-03-19T13:06:57.372Z,1.50
2023-03-19T13:09:47.363Z,1.65
2023-03-19T13:12:24.479Z,1.40
2023-03-19T13:15:17.395Z,1.52
2023-03-19T13:18:20.357Z,1.73
2023-03-19T13:21:25.144Z,1.52
2023-03-19T13:24:26.419Z,1.45
2023-03-19T13:26:56.456Z,1.77
2023-03-19T13:29:33.417Z,1.45
2023-03-19T13:32:11.250Z,1.50
2023-03-19T13:34:46.403Z,1.73
2023-03-19T13:37:19.984Z,1.50
2023-03-19T13:39:58.447Z,1.30
2023-03-19T13:42:48.790Z,1.52
2023-03-19T13:45:46.900Z,1.23
2023-03-19T13:48:28.742Z,1.40
2023-03-19T13:51:24.805Z,1.50
2023-03-19T13:54:23.672Z,1.38
2023-03-19T13:57:07.883Z,1.40
2023-03-19T13:59:41.277Z,1.50
2023-03-19T14:02:34.002Z,1.30
2023-03-19T14:05:25.794Z,1.58
2023-03-19T14:08:08.798Z,1.50
2023-03-19T14:10:43.818Z,1.73
2023-03-19T14:13:30.791Z,1.27
2023-03-19T14:16:28.777Z,1.40
2023-03-19T14:18:58.337Z,1.50
2023-03-19T14:21:47.393Z,1.38
2023-03-19T14:27:38.899Z,3.97
2023-03-19T14:30:29.800Z,1.40
2023-03-19T14:33:14.813Z,1.48
2023-03-19T14:35:53.262Z,1.70
2023-03-19T14:38:56.777Z,1.70
2023-03-19T14:41:29.076Z,2.30
2023-03-19T14:44:18.778Z,2.25
2023-03-19T14:47:03.360Z,2.10
2023-03-19T14:50:02.789Z,1.48
2023-03-19T14:52:52.768Z,1.67
2023-03-19T14:55:26.819Z,2.45
2023-03-19T14:58:03.815Z,1.63
2023-03-19T15:00:55.851Z,1.85
2023-03-19T15:03:31.955Z,1.60
2023-03-19T15:06:16.760Z,1.85
2023-03-19T15:08:53.071Z,1.65
2023-03-19T15:12:12.820Z,1.85
2023-03-19T15:15:27.835Z,1.52
2023-03-19T15:18:09.734Z,1.90
2023-03-19T15:20:50.857Z,3.22
2023-03-19T15:23:27.696Z,1.67
2023-03-19T15:26:10.811Z,1.50
2023-03-19T15:28:58.877Z,1.30
2023-03-19T15:32:04.818Z,1.23
2023-03-19T15:34:34.414Z,1.00
2023-03-19T15:37:14.941Z,0.97
2023-03-19T15:39:52.764Z,2.23
2023-03-19T15:42:25.651Z,0.80
2023-03-19T15:45:08.850Z,0.60
2023-03-19T15:47:49.820Z,0.60
2023-03-19T15:50:30.092Z,0.70
2023-03-19T15:53:21.783Z,0.80
2023-03-19T15:55:58.830Z,0.73
2023-03-19T15:58:36.798Z,0.60
2023-03-19T16:01:15.943Z,0.80
2023-03-19T16:04:01.818Z,0.80
2023-03-19T16:06:41.854Z,0.70
2023-03-19T16:09:33.822Z,0.77
2023-03-19T16:12:24.244Z,0.53
2023-03-19T16:15:00.842Z,0.53
2023-03-19T16:17:39.765Z,0.80
2023-03-19T16:20:21.836Z,0.60
2023-03-19T16:22:58.672Z,0.67
2023-03-19T16:25:42.791Z,1.00
2023-03-19T16:28:17.940Z,0.63
2023-03-19T16:30:58.855Z,0.60
2023-03-19T16:33:28.867Z,0.80
2023-03-19T16:36:03.895Z,0.87
2023-03-19T16:38:54.195Z,0.90
2023-03-19T16:41:35.842Z,0.70
2023-03-19T16:44:23.824Z,0.90
2023-03-19T16:46:57.804Z,1.17
2023-03-19T16:49:25.494Z,1.00
2023-03-19T16:51:59.828Z,0.97
2023-03-19T16:54:33.838Z,1.00
2023-03-19T16:57:02.773Z,1.10
2023-03-19T16:59:31.952Z,1.10
2023-03-19T17:02:06.855Z,1.33
2023-03-19T17:04:40.939Z,0.90
2023-03-19T17:07:17.288Z,1.40
2023-03-19T17:09:54.213Z,1.40
2023-03-19T17:12:21.839Z,1.30
2023-03-19T17:15:00.024Z,1.00
2023-03-19T17:17:33.965Z,1.23
2023-03-19T17:20:07.931Z,0.90
2023-03-19T17:22:35.893Z,1.37
2023-03-19T17:25:17.453Z,0.80
2023-03-19T17:27:45.550Z,0.93
2023-03-19T17:30:21.869Z,1.00
2023-03-19T17:32:54.987Z,0.80
2023-03-19T17:35:28.829Z,0.90
2023-03-19T17:37:56.616Z,0.93
2023-03-19T17:40:34.130Z,1.83
2023-03-19T17:43:10.873Z,4.20
2023-03-19T17:45:48.835Z,4.30
2023-03-19T17:48:32.229Z,2.50
2023-03-19T17:51:02.144Z,0.93
2023-03-19T17:53:36.808Z,1.97
2023-03-19T17:56:04.612Z,1.10
2023-03-19T17:58:38.852Z,1.53
2023-03-19T18:01:21.893Z,1.70
2023-03-19T18:03:51.281Z,1.00
2023-03-19T18:06:35.945Z,1.10
2023-03-19T18:09:11.859Z,1.00
2023-03-19T18:11:39.385Z,1.00
2023-03-19T18:14:13.859Z,1.10
2023-03-19T18:16:42.154Z,1.03
2023-03-19T18:19:32.918Z,1.20
2023-03-19T18:22:00.787Z,0.77
2023-03-19T18:24:34.875Z,0.80
2023-03-19T18:27:02.364Z,0.93
2023-03-19T18:29:38.231Z,0.60
2023-03-19T18:32:21.917Z,0.53
2023-03-19T18:34:49.687Z,0.63
2023-03-19T18:37:24.910Z,0.73
2023-03-19T18:39:59.985Z,0.90
2023-03-19T18:42:35.843Z,8.67
2023-03-19T18:45:09.838Z,2.73
2023-03-19T18:47:44.842Z,0.87
2023-03-19T18:50:18.231Z,2.40
2023-03-19T18:52:53.882Z,2.17
2023-03-19T18:55:23.882Z,1.07
2023-03-19T18:58:02.052Z,1.47
2023-03-19T19:00:35.787Z,1.53
2023-03-19T19:03:10.849Z,1.50
2023-03-19T19:05:51.820Z,4.87
2023-03-19T19:08:26.921Z,6.07
2023-03-19T19:10:58.984Z,7.93
2023-03-19T19:13:55.139Z,4.77
2023-03-19T19:16:29.710Z,45.67
2023-03-19T19:19:03.873Z,18.67
2023-03-19T19:21:37.830Z,21.43
2023-03-19T19:24:06.496Z,25.40
2023-03-19T19:26:45.893Z,31.20
2023-03-19T19:29:22.916Z,9.43
2023-03-19T19:32:04.256Z,5.97
2023-03-19T19:34:33.431Z,3.80
2023-03-19T19:37:07.880Z,2.33
2023-03-19T19:39:43.984Z,1.40
2023-03-19T19:42:25.816Z,1.60
2023-03-19T19:44:58.547Z,1.30
2023-03-19T19:47:33.979Z,1.30
2023-03-19T19:50:02.067Z,1.20
2023-03-19T19:52:35.848Z,1.10
2023-03-19T19:55:04.504Z,1.20
2023-03-19T19:57:31.926Z,1.30
2023-03-19T20:00:12.844Z,1.50
2023-03-19T20:02:41.448Z,1.30
2023-03-19T20:05:41.842Z,1.20
2023-03-19T20:08:15.844Z,1.40
2023-03-19T20:10:50.884Z,1.40
2023-03-19T20:13:36.895Z,1.70
2023-03-19T20:16:11.916Z,1.23
2023-03-19T20:18:50.908Z,1.50
2023-03-19T20:21:20.593Z,1.60
2023-03-19T20:23:57.907Z,1.53
2023-03-19T20:26:25.698Z,1.50
2023-03-19T20:29:00.892Z,1.60
2023-03-19T20:31:37.862Z,1.50
2023-03-19T20:34:12.914Z,1.20
2023-03-19T20:36:40.801Z,1.50
2023-03-19T20:39:14.876Z,1.40
2023-03-19T20:41:48.893Z,1.50
2023-03-19T20:44:31.928Z,1.30
2023-03-19T20:46:59.370Z,1.50
2023-03-19T20:49:32.861Z,1.37
2023-03-19T20:52:00.286Z,1.50
2023-03-19T20:54:34.873Z,1.37
2023-03-19T20:57:03.581Z,1.30
2023-03-19T20:59:37.942Z,1.50
2023-03-19T21:02:17.222Z,1.23
2023-03-19T21:04:54.921Z,1.30
2023-03-19T21:07:36.019Z,1.17
2023-03-19T21:10:27.989Z,1.10
2023-03-19T21:12:57.044Z,1.20
2023-03-19T21:15:25.111Z,1.30
2023-03-19T21:17:59.957Z,1.10
2023-03-19T21:20:36.900Z,1.10
2023-03-19T21:23:32.871Z,0.90
2023-03-19T21:26:19.870Z,1.03
2023-03-19T21:28:56.001Z,1.00
2023-03-19T21:31:29.969Z,0.97
2023-03-19T21:34:03.961Z,1.00
2023-03-19T21:36:38.903Z,1.10
2023-03-19T21:39:12.932Z,1.10
2023-03-19T21:41:41.266Z,0.83
2023-03-19T21:44:24.918Z,1.00
2023-03-19T21:46:58.914Z,1.00
2023-03-19T21:49:34.894Z,1.10
2023-03-19T21:52:03.410Z,1.10
2023-03-19T21:54:36.877Z,0.93
2023-03-19T21:57:10.939Z,1.13
2023-03-19T21:59:45.445Z,1.50
2023-03-19T22:02:44.863Z,1.73
2023-03-19T22:05:24.041Z,1.60
2023-03-19T22:08:05.931Z,2.17
2023-03-19T22:10:35.213Z,2.00
2023-03-19T22:13:10.275Z,2.47
2023-03-19T22:15:38.620Z,3.20
2023-03-19T22:18:20.445Z,3.80
2023-03-19T22:20:50.490Z,3.40
2023-03-19T22:23:26.188Z,3.30
2023-03-19T22:25:54.092Z,3.03
2023-03-19T22:28:43.216Z,2.77
2023-03-19T22:31:11.933Z,2.60
2023-03-19T22:33:46.277Z,2.53
2023-03-19T22:36:21.185Z,2.77
2023-03-19T22:38:49.431Z,2.53
2023-03-19T22:41:36.429Z,3.20
2023-03-19T22:44:07.700Z,2.80
2023-03-19T22:46:42.245Z,2.67
2023-03-19T22:49:17.602Z,2.43
2023-03-19T22:51:51.194Z,3.03
2023-03-19T22:54:18.839Z,2.40
2023-03-19T22:56:53.252Z,2.37
2023-03-19T22:59:20.977Z,2.77
2023-03-19T23:01:55.275Z,2.93
2023-03-19T23:04:26.332Z,2.43
2023-03-19T23:07:04.199Z,2.43
2023-03-19T23:09:35.966Z,2.97
2023-03-19T23:12:11.216Z,3.17
2023-03-19T23:14:39.130Z,2.73
2023-03-19T23:17:24.208Z,2.57
2023-03-19T23:19:52.051Z,2.30
2023-03-19T23:22:26.180Z,2.67
2023-03-19T23:25:02.454Z,2.40
2023-03-19T23:27:36.197Z,2.40
2023-03-19T23:30:03.937Z,2.23
2023-03-19T23:32:38.285Z,2.20
2023-03-19T23:35:22.464Z,2.00
2023-03-19T23:37:57.230Z,1.80
2023-03-19T23:40:36.206Z,1.80
2023-03-19T23:43:12.620Z,1.73
2023-03-19T23:45:42.922Z,1.40
2023-03-19T23:48:10.448Z,1.70
2023-03-19T23:50:45.198Z,1.50
2023-03-19T23:53:22.315Z,1.20
2023-03-19T23:56:06.299Z,1.60
2023-03-19T23:58:43.285Z,1.20
